Flight Track Log - Related Links

Times and Time Zones

All times are in EDT time to prevent confusion due to time zone crossing. See the AWE1940 flight status page for this flight to view local times or setup timezone preferences in your user account.

Time Position Orientation Groundspeed Altitude Reporting Facility
EDT Latitude Longitude Course Direction KTS MPH feet Rate Location/Type
Fri 07:16:12 PM 29.9550 -95.3394 90° East 170 196 1,000  Level Houston Center
Fri 07:17:01 PM 29.9286 -95.3017 129° Southeast 199 229 2,100 1,730 Climbing Houston Center
Fri 07:18:03 PM 29.8867 -95.2369 127° Southeast 252 290 4,200 2,488 Climbing Houston Center
Fri 07:19:00 PM 29.9834 -94.9479 90° East  Level FlightAware Approximate
Fri 07:19:04 PM 29.8381 -95.1633 127° Southeast 279 321 7,200  Level Houston Center
Fri 07:19:59 PM 29.8025 -95.0978 122° Southeast 270 311 9,700 2,219 Climbing Houston Center
Fri 07:20:00 PM 29.9834 -94.8194 90° East  Level FlightAware Approximate
Fri 07:20:17 PM 29.8025 -95.0892 90° East 278 320 9,900  Level Houston Center
Fri 07:21:00 PM 29.9834 -94.6909 90° East  Level FlightAware Approximate
Fri 07:21:19 PM 29.8339 -94.9778 72° East 305 351 11,500  Level Houston Center
Fri 07:22:21 PM 29.8603 -94.8692 74° East 342 394 14,100 2,081 Climbing Houston Center
Fri 07:23:23 PM 29.8881 -94.7575 74° East 360 414 15,800 1,935 Climbing Houston Center
Fri 07:24:25 PM 29.9153 -94.6442 74° East 367 422 18,100 1,984 Climbing Houston Center
Fri 07:25:27 PM 29.9431 -94.5275 75° East 374 430 19,900 1,548 Climbing Houston Center
Fri 07:26:29 PM 29.9714 -94.4094 74° East 387 445 21,300 1,597 Climbing Houston Center
Fri 07:27:31 PM 30.0025 -94.2594 76° East 399 459 23,200 1,548 Climbing Houston Center
Fri 07:28:33 PM 30.0178 -94.1286 82° East 410 472 24,500 1,258 Climbing Houston Center
Fri 07:29:35 PM 30.0347 -93.9947 82° East 420 483 25,800 1,355 Climbing Houston Center
Fri 07:30:37 PM 30.0525 -93.8586 81° East 429 494 27,300 1,220 Climbing Houston Center
Fri 07:31:38 PM 30.0453 -93.7239 94° East 431 496 28,300 1,073 Climbing Houston Center
Fri 07:32:40 PM 29.9947 -93.5622 110° East 449 517 29,500 1,306 Climbing Houston Center
Fri 07:33:42 PM 29.9519 -93.4278 110° East 451 519 31,000 1,306 Climbing Houston Center
Fri 07:34:44 PM 29.9100 -93.2975 110° East 441 507 32,200 919 Climbing Houston Center
Fri 07:35:46 PM 29.9344 -93.1714 77° East 428 493 32,900 387 Climbing Houston Center
Fri 07:36:48 PM 30.0247 -93.0886 38° Northeast 419 482 33,000 48 Climbing Houston Center
Fri 07:37:50 PM 30.1372 -92.9894 37° Northeast 425 489 33,000  Level Houston Center
Fri 07:38:52 PM 30.2297 -92.9058 38° Northeast 424 488 33,000  Level Houston Center
Fri 07:39:53 PM 30.3311 -92.8336 32° Northeast 429 494 33,000  Level Houston Center
Fri 07:40:55 PM 30.4325 -92.7664 30° Northeast 427 491 33,000  Level Houston Center
Fri 07:41:57 PM 30.5233 -92.6825 38° Northeast 426 490 33,000 48 Level Houston Center
Fri 07:42:59 PM 30.5936 -92.5442 59° Northeast 419 482 33,100  Climbing Houston Center
Fri 07:44:01 PM 30.6578 -92.4275 57° Northeast 426 490 33,000 -48 Descending Houston Center
Fri 07:45:03 PM 30.7422 -92.3283 45° Northeast 432 497 33,000  Level Houston Center
Fri 07:46:04 PM 30.8244 -92.2247 47° Northeast 438 504 33,000 49 Level Houston Center
Fri 07:47:06 PM 30.9086 -92.1219 46° Northeast 441 507 33,100  Climbing Houston Center
Fri 07:48:08 PM 30.9922 -92.0197 46° Northeast 439 505 33,000  Descending Houston Center
Fri 07:49:10 PM 31.0672 -91.8708 60° Northeast 448 516 33,100 48 Climbing Houston Center
Fri 07:50:12 PM 31.1233 -91.7431 63° Northeast 445 512 33,100  Level Houston Center
Fri 07:51:14 PM 31.1817 -91.6139 62° Northeast 450 518 33,100  Level Houston Center
Fri 07:52:16 PM 31.2383 -91.4833 63° Northeast 452 520 33,100  Level Houston Center
Fri 07:53:17 PM 31.2969 -91.3522 62° Northeast 456 525 33,100  Level Houston Center
Fri 07:54:19 PM 31.3528 -91.2228 63° Northeast 450 518 33,100 -48 Level Houston Center
Fri 07:55:21 PM 31.4158 -91.0783 63° Northeast 450 518 33,000 -48 Descending Houston Center
Fri 07:56:23 PM 31.4725 -90.9481 63° Northeast 449 517 33,000  Level Houston Center
Fri 07:57:25 PM 31.5306 -90.8167 63° Northeast 452 520 33,000  Level Houston Center
Fri 07:58:27 PM 31.5864 -90.6853 63° Northeast 451 519 33,000  Level Houston Center
Fri 07:59:29 PM 31.6553 -90.5278 63° Northeast 453 521 33,000  Level Houston Center
Fri 08:00:31 PM 31.7106 -90.3953 64° Northeast 452 520 33,000  Level Houston Center
Fri 08:01:33 PM 31.7667 -90.2636 63° Northeast 451 519 33,000  Level Houston Center
Fri 08:02:34 PM 31.8231 -90.1328 63° Northeast 449 517 33,000  Level Houston Center
Fri 08:03:36 PM 31.8797 -90.0006 63° Northeast 451 519 33,000 46 Level Houston Center
Fri 08:04:45 PM 31.9506 -89.8311 64° Northeast 444 511 33,100 47 Climbing Memphis Center
Fri 08:05:44 PM 32.0064 -89.7008 63° Northeast 444 511 33,100  Level Memphis Center
Fri 08:06:44 PM 32.0639 -89.5656 63° Northeast 444 511 33,100  Level Memphis Center
Fri 08:07:44 PM 32.1133 -89.4450 64° Northeast 444 511 33,100  Level Memphis Center
Fri 08:08:44 PM 32.1686 -89.3119 64° Northeast 444 511 33,100  Level Memphis Center
Fri 08:09:45 PM 32.2258 -89.1786 63° Northeast 444 511 33,100 -50 Level Memphis Center
Fri 08:10:44 PM 32.2786 -89.0453 65° Northeast 444 511 33,000 -50 Descending Memphis Center
Fri 08:11:44 PM 32.3356 -88.9092 64° Northeast 444 511 33,000  Level Memphis Center
Fri 08:12:44 PM 32.3925 -88.7778 63° Northeast 444 511 33,000  Level Memphis Center
Fri 08:13:44 PM 32.4514 -88.6511 61° Northeast 444 511 33,000  Level Memphis Center
Fri 08:14:44 PM 32.5122 -88.5194 61° Northeast 449 517 33,000  Level Memphis Center
Fri 08:15:44 PM 32.5728 -88.3925 60° Northeast 449 517 33,000  Level Memphis Center
Fri 08:18:08 PM 32.7222 -88.0731 61° Northeast 436 502 33,000  Level Atlanta Center
Fri 08:19:08 PM 32.7761 -87.9497 63° Northeast 450 518 33,000  Level Atlanta Center
Fri 08:20:08 PM 32.8389 -87.8189 60° Northeast 450 518 33,000 50 Level Atlanta Center
Fri 08:21:08 PM 32.9014 -87.6756 63° Northeast 444 511 33,100 50 Climbing Atlanta Center
Fri 08:22:08 PM 32.9594 -87.5444 62° Northeast 444 511 33,100  Level Atlanta Center
Fri 08:23:08 PM 33.0083 -87.4397 61° Northeast 444 511 33,100  Level Atlanta Center
Fri 08:24:08 PM 33.0750 -87.2886 62° Northeast 449 517 33,100  Level Atlanta Center
Fri 08:25:08 PM 33.1328 -87.1544 63° Northeast 449 517 33,100  Level Atlanta Center
Fri 08:26:08 PM 33.2033 -87.0106 60° Northeast 449 517 33,100 -50 Level Atlanta Center
Fri 08:27:08 PM 33.2483 -86.8731 69° East 444 511 33,000  Descending Atlanta Center
Fri 08:28:08 PM 33.2703 -86.7247 80° East 444 511 33,100  Climbing Atlanta Center
Fri 08:29:08 PM 33.2944 -86.5689 79° East 455 524 33,000  Descending Atlanta Center
Fri 08:30:08 PM 33.3183 -86.4153 79° East 460 529 33,100 50 Climbing Atlanta Center
Fri 08:31:08 PM 33.3442 -86.2669 78° East 460 529 33,100  Level Atlanta Center
Fri 08:32:08 PM 33.3697 -86.1208 78° East 460 529 33,100  Level Atlanta Center
Fri 08:33:08 PM 33.3931 -85.9669 80° East 460 529 33,100 -50 Level Atlanta Center
Fri 08:34:08 PM 33.4161 -85.8183 79° East 465 535 33,000  Descending Atlanta Center
Fri 08:35:08 PM 33.4431 -85.6769 77° East 446 513 33,100 50 Climbing Atlanta Center
Fri 08:36:08 PM 33.4639 -85.5278 80° East 446 513 33,100  Level Atlanta Center
Fri 08:37:08 PM 33.4864 -85.3839 79° East 446 513 33,100  Level Atlanta Center
Fri 08:38:08 PM 33.5089 -85.2347 80° East 446 513 33,100 -50 Level Atlanta Center
Fri 08:39:08 PM 33.5311 -85.0881 80° East 446 513 33,000  Descending Atlanta Center
Fri 08:40:08 PM 33.5486 -84.9586 81° East 446 513 33,100 50 Climbing Atlanta Center
Fri 08:41:08 PM 33.5728 -84.8117 79° East 446 513 33,100  Level Atlanta Center
Fri 08:42:08 PM 33.5986 -84.6522 79° East 446 513 33,100  Level Atlanta Center
Fri 08:43:08 PM 33.6117 -84.5153 83° East 455 524 33,100  Level Atlanta Center
Fri 08:44:08 PM 33.6436 -84.3731 75° East 450 518 33,100  Level Atlanta Center
Fri 08:45:08 PM 33.6833 -84.2386 70° East 436 502 33,100  Level Atlanta Center
Fri 08:46:08 PM 33.7233 -84.0936 72° East 447 514 33,100  Level Atlanta Center
Fri 08:47:08 PM 33.7628 -83.9564 71° East 435 501 33,100  Level Atlanta Center
Fri 08:48:08 PM 33.8003 -83.8139 72° East 435 501 33,100  Level Atlanta Center
Fri 08:49:08 PM 33.8397 -83.6786 71° East 430 495 33,100 -450 Level Atlanta Center
Fri 08:50:08 PM 33.8789 -83.5383 71° East 430 495 32,200 -900 Descending Atlanta Center
Fri 08:51:08 PM 33.9158 -83.4006 72° East 430 495 31,300 -900 Descending Atlanta Center
Fri 08:52:08 PM 33.9567 -83.2500 72° East 452 520 30,400 -1,000 Descending Atlanta Center
Fri 08:53:08 PM 33.9994 -83.0942 72° East 452 520 29,300 -1,200 Descending Atlanta Center
Fri 08:54:08 PM 34.0378 -82.9458 73° East 452 520 28,000 -1,500 Descending Atlanta Center
Fri 08:55:08 PM 34.0761 -82.8025 72° East 452 520 26,300 -1,650 Descending Atlanta Center
Fri 08:56:08 PM 34.1122 -82.6614 73° East 446 513 24,700 -1,150 Descending Atlanta Center
Fri 08:57:08 PM 34.1503 -82.5453 68° East 425 489 24,000 -300 Descending Atlanta Center
Fri 08:58:08 PM 34.1842 -82.4092 73° East 420 483 24,100 50 Climbing Atlanta Center
Fri 08:59:08 PM 34.2197 -82.2728 72° East 420 483 24,100 -50 Level Atlanta Center
Fri 09:00:08 PM 34.2617 -82.1411 69° East 425 489 24,000 -700 Descending Atlanta Center
Fri 09:01:08 PM 34.3353 -82.0464 47° Northeast 403 464 22,700 -1,850 Descending Atlanta Center
Fri 09:02:08 PM 34.4111 -81.9514 46° Northeast 392 451 20,300 -2,350 Descending Atlanta Center
Fri 09:03:08 PM 34.4825 -81.8589 47° Northeast 378 435 18,000 -2,476 Descending Atlanta Center
Fri 09:04:14 PM 34.5722 -81.7533 44° Northeast 359 413 15,100 -2,400 Descending Atlanta Center
Fri 09:05:03 PM 34.6233 -81.6914 45° Northeast 351 404 13,400 -2,000 Descending Atlanta Center
Fri 09:06:08 PM 34.6925 -81.5983 48° Northeast 338 389 11,300 -1,104 Descending Atlanta Center
Fri 09:07:08 PM 34.7494 -81.5233 47° Northeast 307 353 11,100 -100 Descending Atlanta Center
Fri 09:08:08 PM 34.8042 -81.4533 46° Northeast 284 327 11,100 -600 Level Atlanta Center
Fri 09:09:08 PM 34.8444 -81.3864 54° Northeast 278 320 9,900 -1,400 Descending Atlanta Center
Fri 09:10:08 PM 34.8611 -81.2847 79° East 278 320 8,300 -1,400 Descending Atlanta Center
Fri 09:11:08 PM 34.8778 -81.1956 77° East 278 320 7,100 -850 Descending Atlanta Center
Fri 09:12:08 PM 34.8925 -81.1064 79° East 278 320 6,600 -850 Descending Atlanta Center
Fri 09:13:08 PM 34.9092 -81.0247 76° East 262 302 5,400 -1,200 Descending Atlanta Center
Fri 09:13:23 PM 34.9147 -80.9967 76° East 229 264 5,100 -343 Descending Atlanta Center
Fri 09:14:18 PM 34.9386 -80.9450 61° Northeast 179 206 5,000 -103 Descending Atlanta Center
Fri 09:15:19 PM 34.9883 -80.9331 11° North 180 207 4,900 -98 Descending Atlanta Center

Login

Don't have an account? Register now (free) for customized features, flight alerts, and more!